Pagrindinis puslapis
METAR-TAF:

METAR-TAF

Oro uostai :

Bara do Garsasas, Mato Grosas, Brazilija

platuma: 15-52S, ilguma: 052-23W, Aukštis: 350 m

Dabartinis oras

Ataskaita buvo paskelbta 27 minutes, ne 21:00 UTC
Vėjas 3 kt iš Rytų/Pietryčių
Temperatūra 37°C
Drėgmė 31%
Slėgis 1009 hPa
Matomumas: 5000 m
Mažai debesys ne aukštis 3000 ft
dūmai

METAR: SBBW 212100Z 12003KT 5000 FU FEW030 37/17 Q1009

Laikas: 17:27 (21:27 UTC)

Prognozė

Ataskaita buvo paskelbta 5 valandos ir 27 minutes, ne 16:00 UTC
Prognozė galioja nuo 21 metu 18 UTC su 22 metu 06 UTC
Vėjas 8 kt iš Rytų
Matomumas: 5000 m
Išsisklaidę debesys ne aukštis 2500 ft
dūmai
Tapsmas
nuo 21 metu 22 UTC su 21 metu 24 UTC
Vėjas 3 kt iš Šiaurės

TAF: SBBW 211600Z 2118/2206 09008KT 5000 FU SCT025 TX40/2118Z TN24/2206Z BECMG 2122/2124 36003KT RMK PEH

Orai ataskaitas ir orų prognozės (METAR, TAF).

turimą stotys yra geltonos ir raudonos taškus žemėlapyje.

Perkelti pele per norėdami pamatyti stoties vardą.

Tada spustelėkite, norėdami matyti oro stebėjimo ir prognozės.

Norėdami pakeisti žemėlapį: spustelėkite ant žalios mygtukų su juodo kryžiaus žemyn,; žalią mygtuką su brūkšneliu, jei norite nutolinti; arba žalių rodyklių gretimoms žemėlapius.


METAR-TAF: